sensor_id;sensor_type;location;lat;lon;timestamp;P1;durP1;ratioP1;P2;durP2;ratioP2
4986;SDS011;12674;51.500;7.552;2024-01-16T00:02:00;16.60;;;9.63;;
4986;SDS011;12674;51.500;7.552;2024-01-16T00:04:03;16.67;;;9.30;;
4986;SDS011;12674;51.500;7.552;2024-01-16T00:06:07;23.47;;;9.87;;
4986;SDS011;12674;51.500;7.552;2024-01-16T00:08:12;20.77;;;10.50;;
4986;SDS011;12674;51.500;7.552;2024-01-16T00:10:14;15.03;;;9.30;;
4986;SDS011;12674;51.500;7.552;2024-01-16T00:12:17;15.43;;;8.97;;
4986;SDS011;12674;51.500;7.552;2024-01-16T00:14:20;15.73;;;9.00;;
4986;SDS011;12674;51.500;7.552;2024-01-16T00:16:25;15.77;;;9.40;;
4986;SDS011;12674;51.500;7.552;2024-01-16T00:18:27;13.93;;;8.83;;
4986;SDS011;12674;51.500;7.552;2024-01-16T00:20:30;17.37;;;8.97;;
4986;SDS011;12674;51.500;7.552;2024-01-16T00:22:34;13.53;;;8.43;;
4986;SDS011;12674;51.500;7.552;2024-01-16T00:24:38;18.80;;;9.00;;
4986;SDS011;12674;51.500;7.552;2024-01-16T00:26:40;15.57;;;8.67;;
4986;SDS011;12674;51.500;7.552;2024-01-16T00:28:43;22.13;;;8.37;;
4986;SDS011;12674;51.500;7.552;2024-01-16T00:30:45;15.30;;;7.47;;
4986;SDS011;12674;51.500;7.552;2024-01-16T00:32:48;13.03;;;7.87;;
4986;SDS011;12674;51.500;7.552;2024-01-16T00:34:51;15.70;;;7.93;;
4986;SDS011;12674;51.500;7.552;2024-01-16T00:36:54;13.90;;;8.17;;
4986;SDS011;12674;51.500;7.552;2024-01-16T00:38:57;16.07;;;7.80;;
4986;SDS011;12674;51.500;7.552;2024-01-16T00:41:02;12.03;;;7.67;;
4986;SDS011;12674;51.500;7.552;2024-01-16T00:43:06;15.63;;;6.83;;
4986;SDS011;12674;51.500;7.552;2024-01-16T00:45:09;15.30;;;8.00;;
4986;SDS011;12674;51.500;7.552;2024-01-16T00:47:12;19.20;;;7.20;;
4986;SDS011;12674;51.500;7.552;2024-01-16T00:49:15;14.40;;;8.40;;
4986;SDS011;12674;51.500;7.552;2024-01-16T00:51:22;20.13;;;8.10;;
4986;SDS011;12674;51.500;7.552;2024-01-16T00:53:25;14.97;;;7.97;;
4986;SDS011;12674;51.500;7.552;2024-01-16T00:55:29;14.40;;;7.77;;
4986;SDS011;12674;51.500;7.552;2024-01-16T00:57:34;14.90;;;7.70;;
4986;SDS011;12674;51.500;7.552;2024-01-16T00:59:37;12.87;;;7.70;;
4986;SDS011;12674;51.500;7.552;2024-01-16T01:01:40;17.90;;;9.23;;
4986;SDS011;12674;51.500;7.552;2024-01-16T01:03:44;13.93;;;8.30;;
4986;SDS011;12674;51.500;7.552;2024-01-16T01:05:47;10.77;;;8.03;;
4986;SDS011;12674;51.500;7.552;2024-01-16T01:07:50;20.73;;;7.97;;
4986;SDS011;12674;51.500;7.552;2024-01-16T01:09:53;17.20;;;9.00;;
4986;SDS011;12674;51.500;7.552;2024-01-16T01:11:56;11.43;;;9.17;;
4986;SDS011;12674;51.500;7.552;2024-01-16T01:14:01;12.60;;;8.30;;
4986;SDS011;12674;51.500;7.552;2024-01-16T01:16:04;11.20;;;7.60;;
4986;SDS011;12674;51.500;7.552;2024-01-16T01:18:07;23.97;;;9.90;;
4986;SDS011;12674;51.500;7.552;2024-01-16T01:20:11;15.87;;;8.13;;
4986;SDS011;12674;51.500;7.552;2024-01-16T01:22:14;20.17;;;7.67;;
4986;SDS011;12674;51.500;7.552;2024-01-16T01:24:18;17.47;;;8.50;;
4986;SDS011;12674;51.500;7.552;2024-01-16T01:26:21;15.67;;;8.30;;
4986;SDS011;12674;51.500;7.552;2024-01-16T01:28:24;18.10;;;8.87;;
4986;SDS011;12674;51.500;7.552;2024-01-16T01:30:29;12.67;;;7.20;;
4986;SDS011;12674;51.500;7.552;2024-01-16T01:32:32;14.80;;;8.90;;
4986;SDS011;12674;51.500;7.552;2024-01-16T01:34:34;14.90;;;9.00;;
4986;SDS011;12674;51.500;7.552;2024-01-16T01:36:37;11.57;;;7.80;;
4986;SDS011;12674;51.500;7.552;2024-01-16T01:38:41;12.97;;;8.07;;
4986;SDS011;12674;51.500;7.552;2024-01-16T01:40:44;24.07;;;8.47;;
4986;SDS011;12674;51.500;7.552;2024-01-16T01:42:47;11.47;;;8.07;;
4986;SDS011;12674;51.500;7.552;2024-01-16T01:44:50;11.50;;;7.23;;
4986;SDS011;12674;51.500;7.552;2024-01-16T01:46:55;13.23;;;7.53;;
4986;SDS011;12674;51.500;7.552;2024-01-16T01:48:58;21.13;;;8.50;;
4986;SDS011;12674;51.500;7.552;2024-01-16T01:51:02;17.50;;;8.23;;
4986;SDS011;12674;51.500;7.552;2024-01-16T01:53:05;20.73;;;7.93;;
4986;SDS011;12674;51.500;7.552;2024-01-16T01:55:10;16.73;;;8.57;;
4986;SDS011;12674;51.500;7.552;2024-01-16T01:57:14;14.63;;;8.50;;
4986;SDS011;12674;51.500;7.552;2024-01-16T01:59:17;21.57;;;8.23;;
4986;SDS011;12674;51.500;7.552;2024-01-16T02:01:24;15.43;;;7.63;;
4986;SDS011;12674;51.500;7.552;2024-01-16T02:03:29;13.60;;;8.03;;
4986;SDS011;12674;51.500;7.552;2024-01-16T02:05:35;15.43;;;7.40;;
4986;SDS011;12674;51.500;7.552;2024-01-16T02:07:40;18.47;;;8.80;;
4986;SDS011;12674;51.500;7.552;2024-01-16T02:09:43;19.80;;;8.70;;
4986;SDS011;12674;51.500;7.552;2024-01-16T02:11:47;9.33;;;7.93;;
4986;SDS011;12674;51.500;7.552;2024-01-16T02:13:50;13.60;;;8.17;;
4986;SDS011;12674;51.500;7.552;2024-01-16T02:15:53;11.10;;;8.17;;
4986;SDS011;12674;51.500;7.552;2024-01-16T02:17:56;15.40;;;7.90;;
4986;SDS011;12674;51.500;7.552;2024-01-16T02:20:01;13.10;;;8.00;;
4986;SDS011;12674;51.500;7.552;2024-01-16T02:22:05;20.53;;;7.53;;
4986;SDS011;12674;51.500;7.552;2024-01-16T02:24:13;12.43;;;7.40;;
4986;SDS011;12674;51.500;7.552;2024-01-16T02:26:17;16.23;;;8.23;;
4986;SDS011;12674;51.500;7.552;2024-01-16T02:28:21;14.80;;;8.10;;
4986;SDS011;12674;51.500;7.552;2024-01-16T02:30:24;16.30;;;8.13;;
4986;SDS011;12674;51.500;7.552;2024-01-16T02:32:27;24.17;;;8.90;;
4986;SDS011;12674;51.500;7.552;2024-01-16T02:34:30;16.00;;;8.33;;
4986;SDS011;12674;51.500;7.552;2024-01-16T02:36:33;16.13;;;8.53;;
4986;SDS011;12674;51.500;7.552;2024-01-16T02:38:35;19.40;;;8.40;;
4986;SDS011;12674;51.500;7.552;2024-01-16T02:40:40;10.83;;;6.80;;
4986;SDS011;12674;51.500;7.552;2024-01-16T02:42:43;18.67;;;7.57;;
4986;SDS011;12674;51.500;7.552;2024-01-16T02:44:46;14.60;;;8.27;;
4986;SDS011;12674;51.500;7.552;2024-01-16T02:46:49;12.70;;;7.87;;
4986;SDS011;12674;51.500;7.552;2024-01-16T02:48:52;16.30;;;7.70;;
4986;SDS011;12674;51.500;7.552;2024-01-16T02:50:55;10.60;;;7.70;;
4986;SDS011;12674;51.500;7.552;2024-01-16T02:52:58;11.63;;;6.73;;
4986;SDS011;12674;51.500;7.552;2024-01-16T02:55:01;15.10;;;7.40;;
4986;SDS011;12674;51.500;7.552;2024-01-16T02:57:06;16.50;;;8.53;;
4986;SDS011;12674;51.500;7.552;2024-01-16T02:59:09;13.90;;;7.70;;
4986;SDS011;12674;51.500;7.552;2024-01-16T03:01:13;11.47;;;7.27;;
4986;SDS011;12674;51.500;7.552;2024-01-16T03:03:16;12.00;;;7.23;;
4986;SDS011;12674;51.500;7.552;2024-01-16T03:05:19;13.77;;;7.63;;
4986;SDS011;12674;51.500;7.552;2024-01-16T03:07:22;14.60;;;7.70;;
4986;SDS011;12674;51.500;7.552;2024-01-16T03:09:26;20.17;;;8.27;;
4986;SDS011;12674;51.500;7.552;2024-01-16T03:11:29;10.90;;;6.80;;
4986;SDS011;12674;51.500;7.552;2024-01-16T03:13:35;15.33;;;7.23;;
4986;SDS011;12674;51.500;7.552;2024-01-16T03:15:39;15.60;;;8.13;;
4986;SDS011;12674;51.500;7.552;2024-01-16T03:17:42;14.80;;;6.53;;
4986;SDS011;12674;51.500;7.552;2024-01-16T03:19:46;12.30;;;7.07;;
4986;SDS011;12674;51.500;7.552;2024-01-16T03:21:49;18.73;;;7.87;;
4986;SDS011;12674;51.500;7.552;2024-01-16T03:23:52;11.03;;;6.00;;
4986;SDS011;12674;51.500;7.552;2024-01-16T03:25:56;9.53;;;7.00;;
4986;SDS011;12674;51.500;7.552;2024-01-16T03:28:00;9.87;;;7.03;;
4986;SDS011;12674;51.500;7.552;2024-01-16T03:30:05;10.97;;;7.10;;
4986;SDS011;12674;51.500;7.552;2024-01-16T03:32:10;12.20;;;6.73;;
4986;SDS011;12674;51.500;7.552;2024-01-16T03:34:14;10.10;;;6.03;;
4986;SDS011;12674;51.500;7.552;2024-01-16T03:36:18;13.13;;;7.07;;
4986;SDS011;12674;51.500;7.552;2024-01-16T03:38:21;8.37;;;6.67;;
4986;SDS011;12674;51.500;7.552;2024-01-16T03:40:24;15.37;;;6.93;;
4986;SDS011;12674;51.500;7.552;2024-01-16T03:42:27;9.53;;;6.03;;
4986;SDS011;12674;51.500;7.552;2024-01-16T03:44:31;15.27;;;7.80;;
4986;SDS011;12674;51.500;7.552;2024-01-16T03:46:34;18.37;;;7.50;;
4986;SDS011;12674;51.500;7.552;2024-01-16T03:48:37;13.20;;;7.27;;
4986;SDS011;12674;51.500;7.552;2024-01-16T03:50:41;17.50;;;7.53;;
4986;SDS011;12674;51.500;7.552;2024-01-16T03:52:45;7.37;;;6.63;;
4986;SDS011;12674;51.500;7.552;2024-01-16T03:54:51;8.13;;;7.00;;
4986;SDS011;12674;51.500;7.552;2024-01-16T03:56:54;12.10;;;7.03;;
4986;SDS011;12674;51.500;7.552;2024-01-16T03:58:57;11.57;;;6.43;;
4986;SDS011;12674;51.500;7.552;2024-01-16T04:01:00;11.93;;;8.33;;
4986;SDS011;12674;51.500;7.552;2024-01-16T04:03:05;16.07;;;7.73;;
4986;SDS011;12674;51.500;7.552;2024-01-16T04:05:09;11.67;;;8.70;;
4986;SDS011;12674;51.500;7.552;2024-01-16T04:07:12;10.13;;;7.87;;
4986;SDS011;12674;51.500;7.552;2024-01-16T04:09:15;13.73;;;8.87;;
4986;SDS011;12674;51.500;7.552;2024-01-16T04:11:18;16.50;;;9.10;;
4986;SDS011;12674;51.500;7.552;2024-01-16T04:13:20;17.40;;;8.27;;
4986;SDS011;12674;51.500;7.552;2024-01-16T04:15:23;16.40;;;10.47;;
4986;SDS011;12674;51.500;7.552;2024-01-16T04:17:27;16.50;;;10.20;;
4986;SDS011;12674;51.500;7.552;2024-01-16T04:19:31;20.50;;;11.77;;
4986;SDS011;12674;51.500;7.552;2024-01-16T04:21:36;18.73;;;11.47;;
4986;SDS011;12674;51.500;7.552;2024-01-16T04:23:41;16.17;;;12.40;;
4986;SDS011;12674;51.500;7.552;2024-01-16T04:25:43;16.40;;;12.03;;
4986;SDS011;12674;51.500;7.552;2024-01-16T04:27:46;22.33;;;13.90;;
4986;SDS011;12674;51.500;7.552;2024-01-16T04:29:50;15.03;;;11.93;;
4986;SDS011;12674;51.500;7.552;2024-01-16T04:31:53;17.20;;;10.70;;
4986;SDS011;12674;51.500;7.552;2024-01-16T04:33:57;15.63;;;11.60;;
4986;SDS011;12674;51.500;7.552;2024-01-16T04:36:01;20.87;;;13.67;;
4986;SDS011;12674;51.500;7.552;2024-01-16T04:38:05;16.57;;;11.77;;
4986;SDS011;12674;51.500;7.552;2024-01-16T04:40:09;23.83;;;12.30;;
4986;SDS011;12674;51.500;7.552;2024-01-16T04:42:13;14.70;;;11.03;;
4986;SDS011;12674;51.500;7.552;2024-01-16T04:44:19;17.60;;;11.90;;
4986;SDS011;12674;51.500;7.552;2024-01-16T04:46:23;20.40;;;11.67;;
4986;SDS011;12674;51.500;7.552;2024-01-16T04:48:26;21.57;;;11.07;;
4986;SDS011;12674;51.500;7.552;2024-01-16T04:50:29;20.07;;;11.80;;
4986;SDS011;12674;51.500;7.552;2024-01-16T04:52:35;17.37;;;12.43;;
4986;SDS011;12674;51.500;7.552;2024-01-16T04:54:38;17.07;;;12.13;;
4986;SDS011;12674;51.500;7.552;2024-01-16T04:56:41;15.03;;;10.50;;
4986;SDS011;12674;51.500;7.552;2024-01-16T04:58:45;15.13;;;11.70;;
4986;SDS011;12674;51.500;7.552;2024-01-16T05:00:49;15.57;;;10.70;;
4986;SDS011;12674;51.500;7.552;2024-01-16T05:02:52;13.90;;;11.20;;
4986;SDS011;12674;51.500;7.552;2024-01-16T05:04:55;12.43;;;11.13;;
4986;SDS011;12674;51.500;7.552;2024-01-16T05:06:58;25.53;;;11.20;;
4986;SDS011;12674;51.500;7.552;2024-01-16T05:09:02;16.60;;;9.83;;
4986;SDS011;12674;51.500;7.552;2024-01-16T05:11:05;20.40;;;11.83;;
4986;SDS011;12674;51.500;7.552;2024-01-16T05:13:09;19.13;;;11.60;;
4986;SDS011;12674;51.500;7.552;2024-01-16T05:15:13;18.20;;;12.23;;
4986;SDS011;12674;51.500;7.552;2024-01-16T05:17:16;15.73;;;11.03;;
4986;SDS011;12674;51.500;7.552;2024-01-16T05:19:20;18.37;;;11.67;;
4986;SDS011;12674;51.500;7.552;2024-01-16T05:21:23;15.53;;;12.40;;
4986;SDS011;12674;51.500;7.552;2024-01-16T05:23:26;17.80;;;11.60;;
4986;SDS011;12674;51.500;7.552;2024-01-16T05:25:31;20.97;;;10.80;;
4986;SDS011;12674;51.500;7.552;2024-01-16T05:27:33;14.17;;;9.93;;
4986;SDS011;12674;51.500;7.552;2024-01-16T05:29:36;13.70;;;10.10;;
4986;SDS011;12674;51.500;7.552;2024-01-16T05:31:44;13.80;;;9.77;;
4986;SDS011;12674;51.500;7.552;2024-01-16T05:33:47;11.63;;;9.63;;
4986;SDS011;12674;51.500;7.552;2024-01-16T05:35:49;16.27;;;11.20;;
4986;SDS011;12674;51.500;7.552;2024-01-16T05:37:53;17.43;;;10.90;;
4986;SDS011;12674;51.500;7.552;2024-01-16T05:39:57;15.70;;;11.03;;
4986;SDS011;12674;51.500;7.552;2024-01-16T05:42:01;16.33;;;9.80;;
4986;SDS011;12674;51.500;7.552;2024-01-16T05:44:04;13.57;;;9.73;;
4986;SDS011;12674;51.500;7.552;2024-01-16T05:46:07;17.43;;;9.73;;
4986;SDS011;12674;51.500;7.552;2024-01-16T05:48:10;16.17;;;10.50;;
4986;SDS011;12674;51.500;7.552;2024-01-16T05:50:13;19.63;;;10.30;;
4986;SDS011;12674;51.500;7.552;2024-01-16T05:52:18;18.77;;;10.77;;
4986;SDS011;12674;51.500;7.552;2024-01-16T05:54:21;12.57;;;10.40;;
4986;SDS011;12674;51.500;7.552;2024-01-16T05:56:25;13.43;;;9.40;;
4986;SDS011;12674;51.500;7.552;2024-01-16T05:58:29;14.93;;;9.73;;
4986;SDS011;12674;51.500;7.552;2024-01-16T06:00:37;13.50;;;10.27;;
4986;SDS011;12674;51.500;7.552;2024-01-16T06:02:41;11.37;;;9.50;;
4986;SDS011;12674;51.500;7.552;2024-01-16T06:04:44;20.20;;;9.57;;
4986;SDS011;12674;51.500;7.552;2024-01-16T06:06:47;14.07;;;10.20;;
4986;SDS011;12674;51.500;7.552;2024-01-16T06:08:50;16.97;;;9.60;;
4986;SDS011;12674;51.500;7.552;2024-01-16T06:10:53;16.03;;;9.03;;
4986;SDS011;12674;51.500;7.552;2024-01-16T06:12:56;19.10;;;10.13;;
4986;SDS011;12674;51.500;7.552;2024-01-16T06:15:01;15.70;;;8.70;;
4986;SDS011;12674;51.500;7.552;2024-01-16T06:17:04;15.23;;;8.33;;
4986;SDS011;12674;51.500;7.552;2024-01-16T06:19:08;13.23;;;9.13;;
4986;SDS011;12674;51.500;7.552;2024-01-16T06:21:10;15.83;;;7.90;;
4986;SDS011;12674;51.500;7.552;2024-01-16T06:23:13;8.50;;;7.10;;
4986;SDS011;12674;51.500;7.552;2024-01-16T06:25:16;9.23;;;7.40;;
4986;SDS011;12674;51.500;7.552;2024-01-16T06:27:20;13.50;;;7.70;;
4986;SDS011;12674;51.500;7.552;2024-01-16T06:29:23;17.27;;;7.70;;
4986;SDS011;12674;51.500;7.552;2024-01-16T06:31:37;11.33;;;7.83;;
4986;SDS011;12674;51.500;7.552;2024-01-16T06:33:40;10.40;;;6.80;;
4986;SDS011;12674;51.500;7.552;2024-01-16T06:35:44;9.23;;;7.70;;
4986;SDS011;12674;51.500;7.552;2024-01-16T06:37:47;14.53;;;7.60;;
4986;SDS011;12674;51.500;7.552;2024-01-16T06:39:50;14.63;;;7.73;;
4986;SDS011;12674;51.500;7.552;2024-01-16T06:41:53;12.60;;;7.70;;
4986;SDS011;12674;51.500;7.552;2024-01-16T06:43:55;10.53;;;7.00;;
4986;SDS011;12674;51.500;7.552;2024-01-16T06:45:59;13.20;;;7.20;;
4986;SDS011;12674;51.500;7.552;2024-01-16T06:48:04;8.57;;;5.80;;
4986;SDS011;12674;51.500;7.552;2024-01-16T06:50:07;7.63;;;5.53;;
4986;SDS011;12674;51.500;7.552;2024-01-16T06:52:11;16.80;;;6.47;;
4986;SDS011;12674;51.500;7.552;2024-01-16T06:54:14;6.43;;;5.23;;
4986;SDS011;12674;51.500;7.552;2024-01-16T06:56:17;13.60;;;5.70;;
4986;SDS011;12674;51.500;7.552;2024-01-16T06:58:21;9.97;;;6.03;;
4986;SDS011;12674;51.500;7.552;2024-01-16T07:00:24;6.60;;;5.90;;
4986;SDS011;12674;51.500;7.552;2024-01-16T07:02:28;11.77;;;6.33;;
4986;SDS011;12674;51.500;7.552;2024-01-16T07:04:32;9.83;;;6.73;;
4986;SDS011;12674;51.500;7.552;2024-01-16T07:06:36;14.37;;;7.60;;
4986;SDS011;12674;51.500;7.552;2024-01-16T07:08:39;10.00;;;8.00;;
4986;SDS011;12674;51.500;7.552;2024-01-16T07:10:41;11.77;;;7.60;;
4986;SDS011;12674;51.500;7.552;2024-01-16T07:12:44;17.20;;;9.43;;
4986;SDS011;12674;51.500;7.552;2024-01-16T07:14:48;14.87;;;10.10;;
4986;SDS011;12674;51.500;7.552;2024-01-16T07:16:52;17.00;;;9.30;;
4986;SDS011;12674;51.500;7.552;2024-01-16T07:18:55;13.00;;;8.83;;
4986;SDS011;12674;51.500;7.552;2024-01-16T07:21:00;14.43;;;9.00;;
4986;SDS011;12674;51.500;7.552;2024-01-16T07:23:04;14.63;;;10.33;;
4986;SDS011;12674;51.500;7.552;2024-01-16T07:25:08;11.47;;;9.33;;
4986;SDS011;12674;51.500;7.552;2024-01-16T07:27:13;30.43;;;10.67;;
4986;SDS011;12674;51.500;7.552;2024-01-16T07:29:16;13.33;;;9.70;;
4986;SDS011;12674;51.500;7.552;2024-01-16T07:31:20;18.47;;;10.20;;
4986;SDS011;12674;51.500;7.552;2024-01-16T07:33:23;15.50;;;10.10;;
4986;SDS011;12674;51.500;7.552;2024-01-16T07:35:26;18.60;;;10.83;;
4986;SDS011;12674;51.500;7.552;2024-01-16T07:37:31;13.43;;;10.27;;
4986;SDS011;12674;51.500;7.552;2024-01-16T07:39:35;25.00;;;10.73;;
4986;SDS011;12674;51.500;7.552;2024-01-16T07:41:38;16.57;;;9.20;;
4986;SDS011;12674;51.500;7.552;2024-01-16T07:43:42;16.37;;;8.67;;
4986;SDS011;12674;51.500;7.552;2024-01-16T07:45:51;12.90;;;9.07;;
4986;SDS011;12674;51.500;7.552;2024-01-16T07:47:55;12.63;;;8.10;;
4986;SDS011;12674;51.500;7.552;2024-01-16T07:49:58;15.77;;;8.80;;
4986;SDS011;12674;51.500;7.552;2024-01-16T07:52:04;18.87;;;8.70;;
4986;SDS011;12674;51.500;7.552;2024-01-16T07:54:09;15.57;;;7.63;;
4986;SDS011;12674;51.500;7.552;2024-01-16T07:56:16;19.50;;;7.33;;
4986;SDS011;12674;51.500;7.552;2024-01-16T07:58:20;21.03;;;8.03;;
4986;SDS011;12674;51.500;7.552;2024-01-16T08:00:23;15.00;;;7.83;;
4986;SDS011;12674;51.500;7.552;2024-01-16T08:02:26;15.33;;;7.33;;
4986;SDS011;12674;51.500;7.552;2024-01-16T08:04:34;19.50;;;7.77;;
4986;SDS011;12674;51.500;7.552;2024-01-16T08:06:37;16.53;;;7.47;;
4986;SDS011;12674;51.500;7.552;2024-01-16T08:08:40;13.93;;;7.00;;
4986;SDS011;12674;51.500;7.552;2024-01-16T08:10:45;14.47;;;7.67;;
4986;SDS011;12674;51.500;7.552;2024-01-16T08:12:48;16.63;;;7.50;;
4986;SDS011;12674;51.500;7.552;2024-01-16T08:14:54;15.70;;;6.70;;
4986;SDS011;12674;51.500;7.552;2024-01-16T08:16:57;14.87;;;6.43;;
4986;SDS011;12674;51.500;7.552;2024-01-16T08:19:00;18.23;;;7.30;;
4986;SDS011;12674;51.500;7.552;2024-01-16T08:21:05;11.57;;;6.63;;
4986;SDS011;12674;51.500;7.552;2024-01-16T08:23:09;17.00;;;7.33;;
4986;SDS011;12674;51.500;7.552;2024-01-16T08:25:12;10.67;;;6.77;;
4986;SDS011;12674;51.500;7.552;2024-01-16T08:27:15;10.20;;;6.40;;
4986;SDS011;12674;51.500;7.552;2024-01-16T08:29:18;15.23;;;6.43;;
4986;SDS011;12674;51.500;7.552;2024-01-16T08:31:21;21.33;;;6.70;;
4986;SDS011;12674;51.500;7.552;2024-01-16T08:33:24;16.33;;;5.70;;
4986;SDS011;12674;51.500;7.552;2024-01-16T08:35:40;9.20;;;5.53;;
4986;SDS011;12674;51.500;7.552;2024-01-16T08:37:43;14.40;;;6.07;;
4986;SDS011;12674;51.500;7.552;2024-01-16T08:39:47;15.83;;;5.47;;
4986;SDS011;12674;51.500;7.552;2024-01-16T08:41:54;11.70;;;5.07;;
4986;SDS011;12674;51.500;7.552;2024-01-16T08:44:00;11.20;;;4.80;;
4986;SDS011;12674;51.500;7.552;2024-01-16T08:46:03;17.53;;;5.60;;
4986;SDS011;12674;51.500;7.552;2024-01-16T08:48:06;12.87;;;4.53;;
4986;SDS011;12674;51.500;7.552;2024-01-16T08:50:10;13.00;;;5.37;;
4986;SDS011;12674;51.500;7.552;2024-01-16T08:52:14;8.23;;;4.23;;
4986;SDS011;12674;51.500;7.552;2024-01-16T08:54:17;11.07;;;4.60;;
4986;SDS011;12674;51.500;7.552;2024-01-16T08:56:20;11.23;;;4.97;;
4986;SDS011;12674;51.500;7.552;2024-01-16T08:58:23;10.20;;;3.80;;
4986;SDS011;12674;51.500;7.552;2024-01-16T09:00:27;8.00;;;3.93;;
4986;SDS011;12674;51.500;7.552;2024-01-16T09:02:30;7.83;;;3.90;;
4986;SDS011;12674;51.500;7.552;2024-01-16T09:04:34;11.27;;;4.20;;
4986;SDS011;12674;51.500;7.552;2024-01-16T09:06:37;10.27;;;4.40;;
4986;SDS011;12674;51.500;7.552;2024-01-16T09:08:39;12.13;;;3.10;;
4986;SDS011;12674;51.500;7.552;2024-01-16T09:10:43;18.77;;;5.10;;
4986;SDS011;12674;51.500;7.552;2024-01-16T09:12:47;6.40;;;3.57;;
4986;SDS011;12674;51.500;7.552;2024-01-16T09:14:51;12.77;;;3.80;;
4986;SDS011;12674;51.500;7.552;2024-01-16T09:16:56;8.73;;;3.30;;
4986;SDS011;12674;51.500;7.552;2024-01-16T09:18:59;10.60;;;3.27;;
4986;SDS011;12674;51.500;7.552;2024-01-16T09:21:03;9.40;;;2.90;;
4986;SDS011;12674;51.500;7.552;2024-01-16T09:23:05;11.07;;;3.73;;
4986;SDS011;12674;51.500;7.552;2024-01-16T09:25:11;6.73;;;2.90;;
4986;SDS011;12674;51.500;7.552;2024-01-16T09:27:15;7.10;;;2.90;;
4986;SDS011;12674;51.500;7.552;2024-01-16T09:29:18;13.60;;;3.07;;
4986;SDS011;12674;51.500;7.552;2024-01-16T09:31:23;7.03;;;2.90;;
4986;SDS011;12674;51.500;7.552;2024-01-16T09:33:27;5.80;;;2.83;;
4986;SDS011;12674;51.500;7.552;2024-01-16T09:35:31;9.30;;;2.67;;
4986;SDS011;12674;51.500;7.552;2024-01-16T09:37:34;12.57;;;3.27;;
4986;SDS011;12674;51.500;7.552;2024-01-16T09:39:38;7.97;;;3.00;;
4986;SDS011;12674;51.500;7.552;2024-01-16T09:41:41;8.50;;;3.20;;
4986;SDS011;12674;51.500;7.552;2024-01-16T09:43:45;14.60;;;3.13;;
4986;SDS011;12674;51.500;7.552;2024-01-16T09:45:49;10.50;;;2.87;;
4986;SDS011;12674;51.500;7.552;2024-01-16T09:47:53;5.73;;;2.67;;
4986;SDS011;12674;51.500;7.552;2024-01-16T09:50:00;11.13;;;2.50;;
4986;SDS011;12674;51.500;7.552;2024-01-16T09:52:05;9.67;;;2.60;;
4986;SDS011;12674;51.500;7.552;2024-01-16T09:54:08;12.73;;;2.90;;
4986;SDS011;12674;51.500;7.552;2024-01-16T09:56:13;9.23;;;3.03;;
4986;SDS011;12674;51.500;7.552;2024-01-16T09:58:17;16.30;;;3.30;;
4986;SDS011;12674;51.500;7.552;2024-01-16T10:00:26;10.33;;;3.00;;
4986;SDS011;12674;51.500;7.552;2024-01-16T10:02:30;9.27;;;2.70;;
4986;SDS011;12674;51.500;7.552;2024-01-16T10:04:34;7.53;;;2.27;;
4986;SDS011;12674;51.500;7.552;2024-01-16T10:06:39;10.33;;;2.67;;
4986;SDS011;12674;51.500;7.552;2024-01-16T10:08:42;12.70;;;2.60;;
4986;SDS011;12674;51.500;7.552;2024-01-16T10:10:46;9.10;;;2.87;;
4986;SDS011;12674;51.500;7.552;2024-01-16T10:12:52;18.43;;;2.97;;
4986;SDS011;12674;51.500;7.552;2024-01-16T10:14:55;12.00;;;2.13;;
4986;SDS011;12674;51.500;7.552;2024-01-16T10:16:59;8.07;;;2.30;;
4986;SDS011;12674;51.500;7.552;2024-01-16T10:19:07;11.27;;;2.90;;
4986;SDS011;12674;51.500;7.552;2024-01-16T10:21:19;12.20;;;2.80;;
4986;SDS011;12674;51.500;7.552;2024-01-16T10:23:26;15.17;;;3.50;;
4986;SDS011;12674;51.500;7.552;2024-01-16T10:25:30;9.13;;;2.07;;
4986;SDS011;12674;51.500;7.552;2024-01-16T10:27:34;10.17;;;2.73;;
4986;SDS011;12674;51.500;7.552;2024-01-16T10:29:36;8.63;;;2.60;;
4986;SDS011;12674;51.500;7.552;2024-01-16T10:31:50;8.27;;;2.10;;
4986;SDS011;12674;51.500;7.552;2024-01-16T10:33:54;9.20;;;2.60;;
4986;SDS011;12674;51.500;7.552;2024-01-16T10:36:07;7.20;;;2.40;;
4986;SDS011;12674;51.500;7.552;2024-01-16T10:38:13;6.53;;;1.93;;
4986;SDS011;12674;51.500;7.552;2024-01-16T10:40:24;9.93;;;2.53;;
4986;SDS011;12674;51.500;7.552;2024-01-16T10:42:31;6.37;;;2.60;;
4986;SDS011;12674;51.500;7.552;2024-01-16T10:44:32;6.97;;;2.10;;
4986;SDS011;12674;51.500;7.552;2024-01-16T10:46:36;12.17;;;2.53;;
4986;SDS011;12674;51.500;7.552;2024-01-16T10:48:40;11.57;;;2.63;;
4986;SDS011;12674;51.500;7.552;2024-01-16T10:50:44;13.40;;;2.60;;
4986;SDS011;12674;51.500;7.552;2024-01-16T10:52:48;9.10;;;2.63;;
4986;SDS011;12674;51.500;7.552;2024-01-16T10:54:51;9.60;;;2.40;;
4986;SDS011;12674;51.500;7.552;2024-01-16T10:56:55;5.23;;;1.80;;
4986;SDS011;12674;51.500;7.552;2024-01-16T10:59:01;5.93;;;2.67;;
4986;SDS011;12674;51.500;7.552;2024-01-16T11:01:10;10.83;;;3.00;;
4986;SDS011;12674;51.500;7.552;2024-01-16T11:03:16;5.67;;;2.77;;
4986;SDS011;12674;51.500;7.552;2024-01-16T11:05:21;7.87;;;2.90;;
4986;SDS011;12674;51.500;7.552;2024-01-16T11:07:28;6.70;;;2.60;;
4986;SDS011;12674;51.500;7.552;2024-01-16T11:09:31;13.33;;;2.33;;
4986;SDS011;12674;51.500;7.552;2024-01-16T11:11:36;5.93;;;2.30;;
4986;SDS011;12674;51.500;7.552;2024-01-16T11:13:42;9.73;;;2.13;;
4986;SDS011;12674;51.500;7.552;2024-01-16T11:15:48;5.50;;;2.20;;
4986;SDS011;12674;51.500;7.552;2024-01-16T11:17:52;11.90;;;2.53;;
4986;SDS011;12674;51.500;7.552;2024-01-16T11:19:56;8.23;;;2.93;;
4986;SDS011;12674;51.500;7.552;2024-01-16T11:22:21;9.10;;;2.10;;
4986;SDS011;12674;51.500;7.552;2024-01-16T11:24:25;14.87;;;3.10;;
4986;SDS011;12674;51.500;7.552;2024-01-16T11:26:28;5.00;;;2.27;;
4986;SDS011;12674;51.500;7.552;2024-01-16T11:28:34;8.77;;;2.37;;
4986;SDS011;12674;51.500;7.552;2024-01-16T11:30:39;4.20;;;2.17;;
4986;SDS011;12674;51.500;7.552;2024-01-16T11:32:44;7.93;;;2.73;;
4986;SDS011;12674;51.500;7.552;2024-01-16T11:34:52;10.87;;;2.53;;
4986;SDS011;12674;51.500;7.552;2024-01-16T11:36:57;10.33;;;2.20;;
4986;SDS011;12674;51.500;7.552;2024-01-16T11:39:01;5.43;;;2.47;;
4986;SDS011;12674;51.500;7.552;2024-01-16T11:41:03;4.57;;;2.33;;
4986;SDS011;12674;51.500;7.552;2024-01-16T11:45:48;3.27;;;2.00;;
4986;SDS011;12674;51.500;7.552;2024-01-16T11:48:07;15.23;;;2.70;;
4986;SDS011;12674;51.500;7.552;2024-01-16T11:50:11;11.60;;;2.50;;
4986;SDS011;12674;51.500;7.552;2024-01-16T11:54:42;11.03;;;3.03;;
4986;SDS011;12674;51.500;7.552;2024-01-16T11:56:53;5.10;;;2.23;;
4986;SDS011;12674;51.500;7.552;2024-01-16T11:59:21;12.37;;;3.60;;
4986;SDS011;12674;51.500;7.552;2024-01-16T12:01:48;9.17;;;2.73;;
4986;SDS011;12674;51.500;7.552;2024-01-16T12:04:03;5.43;;;2.47;;
4986;SDS011;12674;51.500;7.552;2024-01-16T12:06:08;16.50;;;2.70;;
4986;SDS011;12674;51.500;7.552;2024-01-16T12:08:12;12.40;;;3.10;;
4986;SDS011;12674;51.500;7.552;2024-01-16T12:10:24;8.73;;;3.07;;
4986;SDS011;12674;51.500;7.552;2024-01-16T12:12:27;10.90;;;2.80;;
4986;SDS011;12674;51.500;7.552;2024-01-16T12:14:30;12.47;;;2.57;;
4986;SDS011;12674;51.500;7.552;2024-01-16T12:16:33;14.50;;;4.00;;
4986;SDS011;12674;51.500;7.552;2024-01-16T12:18:50;8.07;;;2.77;;
4986;SDS011;12674;51.500;7.552;2024-01-16T12:20:53;8.70;;;2.80;;
4986;SDS011;12674;51.500;7.552;2024-01-16T12:22:57;7.97;;;2.60;;
4986;SDS011;12674;51.500;7.552;2024-01-16T12:25:00;10.17;;;2.77;;
4986;SDS011;12674;51.500;7.552;2024-01-16T12:27:06;8.90;;;2.67;;
4986;SDS011;12674;51.500;7.552;2024-01-16T12:29:10;9.90;;;3.23;;
4986;SDS011;12674;51.500;7.552;2024-01-16T12:31:17;7.77;;;2.90;;
4986;SDS011;12674;51.500;7.552;2024-01-16T12:33:21;12.13;;;2.80;;
4986;SDS011;12674;51.500;7.552;2024-01-16T12:35:25;6.17;;;2.73;;